createdAt,value
2018-04-12T07:46:34.451Z,998.27
2018-04-12T07:47:34.771Z,998.41
2018-04-12T07:48:35.155Z,998.37
2018-04-12T07:49:34.335Z,998.56
2018-04-12T07:50:34.330Z,998.54
2018-04-12T07:51:34.813Z,998.56
2018-04-12T07:52:34.261Z,998.21
2018-04-12T07:53:34.240Z,998.57
2018-04-12T07:54:34.258Z,998.60
2018-04-12T07:55:34.244Z,998.39
2018-04-12T07:56:34.261Z,998.34
2018-04-12T07:57:34.293Z,998.18
2018-04-12T07:58:34.251Z,998.14
2018-04-12T07:59:34.256Z,998.39
2018-04-12T08:00:34.260Z,998.27
2018-04-12T08:01:34.261Z,998.29
2018-04-12T08:02:34.254Z,998.42
2018-04-12T08:03:34.285Z,998.19
2018-04-12T08:04:34.264Z,998.40
2018-04-12T08:05:34.270Z,998.36
2018-04-12T08:06:35.162Z,998.41
2018-04-12T08:07:34.315Z,998.55
2018-04-12T08:08:34.319Z,998.62
2018-04-12T08:09:34.295Z,998.22
2018-04-12T08:10:34.340Z,998.35
2018-04-12T08:11:34.315Z,998.38
2018-04-12T08:14:54.404Z,998.11
2018-04-12T08:15:44.688Z,998.02
2018-04-12T08:16:54.096Z,998.24
2018-04-12T08:18:38.108Z,998.11
2018-04-12T08:19:38.064Z,998.13
2018-04-12T08:20:38.061Z,998.29
2018-04-12T08:21:38.043Z,998.44
2018-04-12T08:22:38.065Z,998.46
2018-04-12T08:23:38.067Z,998.93
2018-04-12T08:24:38.077Z,998.78
2018-04-12T08:25:38.062Z,998.64
2018-04-12T08:26:38.058Z,998.15
2018-04-12T08:27:38.085Z,998.38
2018-04-12T08:28:38.068Z,998.20
2018-04-12T08:29:38.091Z,998.40
2018-04-12T08:30:38.126Z,998.74
2018-04-12T08:31:38.087Z,998.97
2018-04-12T08:32:39.034Z,998.45
2018-04-12T08:33:38.078Z,998.49
2018-04-12T08:34:38.110Z,998.92
2018-04-12T08:35:39.033Z,998.73
2018-04-12T08:36:38.089Z,998.70
2018-04-12T08:37:38.113Z,998.97
2018-04-12T08:38:38.105Z,999.17
2018-04-12T08:39:38.134Z,998.96
2018-04-12T08:40:38.124Z,998.54
2018-04-12T08:41:38.133Z,998.38
2018-04-12T08:42:38.110Z,998.13
2018-04-12T08:43:39.042Z,998.03
2018-04-12T08:44:38.116Z,998.07
2018-04-12T08:45:38.132Z,997.95
2018-04-12T08:46:38.136Z,997.84
2018-04-12T08:47:38.141Z,997.74
2018-04-12T08:48:38.142Z,997.69
2018-04-12T08:49:38.129Z,997.66
2018-04-12T08:50:38.146Z,997.68
2018-04-12T08:51:38.150Z,997.71
2018-04-12T08:52:39.039Z,997.70
2018-04-12T08:53:38.150Z,997.71
2018-04-12T08:54:38.138Z,997.67
2018-04-12T08:55:38.186Z,997.60
2018-04-12T08:56:38.192Z,997.58
2018-04-12T08:57:38.161Z,997.50
2018-04-12T08:58:38.159Z,997.47
2018-04-12T08:59:38.176Z,997.52
2018-04-12T09:00:38.228Z,997.50
2018-04-12T09:01:38.169Z,997.55
2018-04-12T09:02:38.280Z,997.51
2018-04-12T09:03:38.175Z,997.52
2018-04-12T09:04:38.175Z,997.56
2018-04-12T09:05:38.180Z,997.57
2018-04-12T09:06:38.188Z,997.58
2018-04-12T09:07:39.543Z,997.56
2018-04-12T09:08:38.186Z,997.55
2018-04-12T09:09:38.216Z,997.53
2018-04-12T09:10:38.197Z,997.61
2018-04-12T09:11:38.202Z,997.70
2018-04-12T09:12:38.199Z,997.74
2018-04-12T09:13:38.211Z,997.83
2018-04-12T09:14:38.244Z,997.84
2018-04-12T09:15:38.232Z,997.91
2018-04-12T09:16:38.228Z,997.65
2018-04-12T09:17:38.216Z,997.56
2018-04-12T09:18:38.235Z,997.52
2018-04-12T09:19:38.293Z,997.43
2018-04-12T09:20:38.232Z,997.50
2018-04-12T09:21:38.222Z,997.64
2018-04-12T09:22:38.224Z,997.85
2018-04-12T09:23:39.051Z,998.47
2018-04-12T09:24:38.229Z,998.57
2018-04-12T09:25:38.303Z,998.64
2018-04-12T09:26:38.231Z,998.74
2018-04-12T09:27:38.248Z,999.11
2018-04-12T09:28:38.244Z,999.23
2018-04-12T09:29:38.287Z,999.28
2018-04-12T09:30:38.248Z,998.92
2018-04-12T09:31:38.274Z,998.83
2018-04-12T09:32:38.304Z,998.94
2018-04-12T09:33:38.270Z,998.80
2018-04-12T09:34:38.303Z,998.54
2018-04-12T09:35:38.284Z,998.48
2018-04-12T09:36:38.274Z,998.00
2018-04-12T09:37:38.300Z,997.99
2018-04-12T09:38:38.267Z,998.02
2018-04-12T09:39:38.299Z,998.16
2018-04-12T09:40:38.284Z,998.12
2018-04-12T09:41:38.296Z,998.20
2018-04-12T09:42:38.302Z,998.16
2018-04-12T09:43:38.306Z,998.17
2018-04-12T09:44:38.337Z,998.24
2018-04-12T09:45:38.322Z,998.18
2018-04-12T09:46:39.060Z,998.04
2018-04-12T09:47:38.362Z,997.92
2018-04-12T09:48:38.353Z,997.78
2018-04-12T09:49:39.074Z,997.61
2018-04-12T09:50:38.334Z,997.64
2018-04-12T09:51:38.344Z,997.69
2018-04-12T09:52:38.404Z,997.56
2018-04-12T09:53:40.206Z,997.53
2018-04-12T09:54:38.419Z,997.58
2018-04-12T09:55:38.364Z,997.67
2018-04-12T09:56:38.388Z,997.74
2018-04-12T09:57:38.402Z,998.02
2018-04-12T09:58:38.400Z,998.03
2018-04-12T09:59:38.422Z,997.96
2018-04-12T10:00:38.397Z,998.15
2018-04-12T10:01:38.390Z,998.21
2018-04-12T10:02:38.412Z,998.10
2018-04-12T10:03:38.447Z,998.09
2018-04-12T10:04:38.418Z,998.13
2018-04-12T10:05:38.428Z,998.11
2018-04-12T10:06:38.484Z,998.26
2018-04-12T10:07:38.949Z,998.31
2018-04-12T10:08:38.451Z,998.38
2018-04-12T10:09:38.457Z,998.42
2018-04-12T10:10:38.445Z,998.37
2018-04-12T10:11:38.509Z,998.25
2018-04-12T10:12:38.455Z,998.26
2018-04-12T10:13:38.547Z,998.41
2018-04-12T10:14:38.460Z,998.29
2018-04-12T10:15:38.472Z,998.12
2018-04-12T10:16:38.495Z,997.76
2018-04-12T10:17:38.515Z,997.54
2018-04-12T10:18:38.492Z,997.35
2018-04-12T10:19:38.697Z,997.25
2018-04-12T10:20:38.501Z,997.10
2018-04-12T10:21:38.525Z,997.04
2018-04-12T10:22:38.532Z,997.10
2018-04-12T10:23:38.525Z,997.03
2018-04-12T10:24:38.536Z,996.92
2018-04-12T10:25:38.543Z,996.84
2018-04-12T10:26:38.549Z,997.10
2018-04-12T10:27:38.569Z,997.11
2018-04-12T10:28:38.727Z,996.89
2018-04-12T10:29:38.568Z,997.02
2018-04-12T10:30:39.085Z,997.12
2018-04-12T10:31:38.585Z,997.10
2018-04-12T10:32:38.589Z,997.17
2018-04-12T10:33:38.607Z,997.22
2018-04-12T10:34:38.635Z,997.31
2018-04-12T10:35:38.612Z,997.50
2018-04-12T10:36:38.619Z,997.60
2018-04-12T10:37:38.657Z,997.50
2018-04-12T10:38:38.695Z,997.51
2018-04-12T10:39:38.644Z,997.51
2018-04-12T10:40:38.730Z,997.11
2018-04-12T10:41:38.730Z,996.91
2018-04-12T10:42:38.684Z,996.91
2018-04-12T10:43:38.698Z,996.84
2018-04-12T10:44:38.695Z,997.09
2018-04-12T10:45:38.718Z,997.41
2018-04-12T10:46:38.728Z,997.33
2018-04-12T10:47:38.816Z,997.57
2018-04-12T10:48:38.827Z,997.51
2018-04-12T10:49:38.797Z,997.71
2018-04-12T10:50:38.762Z,997.25
2018-04-12T10:51:38.778Z,997.02
2018-04-12T10:52:38.781Z,997.67
2018-04-12T10:53:38.795Z,997.31
2018-04-12T10:54:38.781Z,997.11
2018-04-12T10:55:38.809Z,997.12
2018-04-12T10:56:38.807Z,997.37
2018-04-12T10:57:38.820Z,997.48
2018-04-12T10:58:38.819Z,997.38
2018-04-12T10:59:38.829Z,997.27
2018-04-12T11:00:39.598Z,997.48
2018-04-12T11:01:38.855Z,997.50
2018-04-12T11:02:38.870Z,996.96
2018-04-12T11:03:38.881Z,997.34
2018-04-12T11:04:38.896Z,997.27
2018-04-12T11:05:38.896Z,997.43
2018-04-12T11:06:38.899Z,997.40
2018-04-12T11:07:38.966Z,997.18
2018-04-12T11:08:38.990Z,997.02
2018-04-12T11:09:38.977Z,996.99
2018-04-12T11:10:38.939Z,997.03
2018-04-12T11:11:39.013Z,996.95
2018-04-12T11:12:38.994Z,996.89
2018-04-12T11:13:39.042Z,996.82
2018-04-12T11:14:39.017Z,996.85
2018-04-12T11:15:39.028Z,996.88
2018-04-12T11:16:39.070Z,996.92
2018-04-12T11:17:39.057Z,996.90
2018-04-12T11:18:39.072Z,996.90
2018-04-12T11:19:39.042Z,996.97
2018-04-12T11:20:39.075Z,996.97
2018-04-12T11:21:39.065Z,996.98
2018-04-12T11:22:39.086Z,997.06
2018-04-12T11:23:39.117Z,996.89
2018-04-12T11:24:39.101Z,996.77
2018-04-12T11:25:39.117Z,996.81
2018-04-12T11:26:39.456Z,996.88
2018-04-12T11:27:39.123Z,997.04
2018-04-12T11:28:39.157Z,997.20
2018-04-12T11:29:39.122Z,997.14
2018-04-12T11:30:39.176Z,997.10
2018-04-12T11:31:39.183Z,997.04
2018-04-12T11:32:39.146Z,997.02
2018-04-12T11:33:39.147Z,996.96
2018-04-12T11:34:39.157Z,996.93
2018-04-12T11:35:39.160Z,996.92
2018-04-12T11:36:39.176Z,996.91
2018-04-12T11:37:39.168Z,996.80
2018-04-12T11:38:39.169Z,996.68
2018-04-12T11:39:40.121Z,996.67
2018-04-12T11:40:39.207Z,996.67
2018-04-12T11:41:39.217Z,996.58
2018-04-12T11:42:40.125Z,996.68
2018-04-12T11:43:39.206Z,996.57
2018-04-12T11:44:39.269Z,996.51
2018-04-12T11:45:39.239Z,996.40
2018-04-12T11:46:40.130Z,996.55
2018-04-12T11:47:39.275Z,996.44
2018-04-12T11:48:39.273Z,996.62
2018-04-12T11:49:39.318Z,996.46
2018-04-12T11:50:39.275Z,996.33
2018-04-12T11:51:39.306Z,996.31
2018-04-12T11:52:40.132Z,996.33
2018-04-12T11:53:39.264Z,996.34
2018-04-12T11:54:39.265Z,996.36
2018-04-12T11:55:39.327Z,996.35
2018-04-12T11:56:40.170Z,996.45
2018-04-12T11:57:39.450Z,996.45
2018-04-12T11:58:39.406Z,996.54
2018-04-12T11:59:39.343Z,996.60
2018-04-12T12:00:39.369Z,996.48
2018-04-12T12:01:39.398Z,996.42
2018-04-12T12:02:39.328Z,996.49
2018-04-12T12:03:39.329Z,996.65
2018-04-12T12:04:40.229Z,996.60
2018-04-12T12:05:39.329Z,996.65
2018-04-12T12:06:39.321Z,996.75
2018-04-12T12:07:39.358Z,996.63
2018-04-12T12:08:39.337Z,996.73
2018-04-12T12:09:41.213Z,996.76
2018-04-12T12:10:39.344Z,996.61
2018-04-12T12:11:39.347Z,996.71
2018-04-12T12:12:39.350Z,996.75
2018-04-12T12:13:40.180Z,996.71
2018-04-12T12:14:39.388Z,996.75
2018-04-12T12:15:39.373Z,996.74
2018-04-12T12:16:39.380Z,996.52
2018-04-12T12:17:39.380Z,996.53
2018-04-12T12:18:39.376Z,996.38
2018-04-12T12:19:39.396Z,996.30
2018-04-12T12:20:39.455Z,996.28
2018-04-12T12:21:39.390Z,996.48
2018-04-12T12:22:39.390Z,996.49
2018-04-12T12:23:39.415Z,996.41
2018-04-12T12:24:39.400Z,996.27
2018-04-12T12:25:39.411Z,996.25
2018-04-12T12:26:39.419Z,996.30
2018-04-12T12:27:39.437Z,996.27
2018-04-12T12:28:39.456Z,996.32
2018-04-12T12:29:39.427Z,996.35
2018-04-12T12:30:39.551Z,996.40
2018-04-12T12:31:39.450Z,996.38
2018-04-12T12:32:39.437Z,996.57
2018-04-12T12:33:39.458Z,996.44
2018-04-12T12:34:39.458Z,996.24
2018-04-12T12:35:39.454Z,996.21
2018-04-12T12:36:39.458Z,996.21
2018-04-12T12:37:39.474Z,996.13
2018-04-12T12:38:39.466Z,996.11
2018-04-12T12:39:39.481Z,996.10
2018-04-12T12:40:39.508Z,996.22
2018-04-12T12:41:39.493Z,996.06
2018-04-12T12:42:39.482Z,995.96
2018-04-12T12:43:39.509Z,995.92
2018-04-12T12:44:39.496Z,995.96
2018-04-12T12:45:39.508Z,995.99
2018-04-12T12:46:39.511Z,995.98
2018-04-12T12:47:39.519Z,995.96
2018-04-12T12:48:39.515Z,996.11
2018-04-12T12:49:39.518Z,996.12
2018-04-12T12:50:39.539Z,995.96
2018-04-12T12:51:39.644Z,995.89
2018-04-12T12:52:40.156Z,995.89
2018-04-12T12:53:40.154Z,995.84
2018-04-12T12:54:39.544Z,995.81
2018-04-12T12:55:39.546Z,995.83
2018-04-12T12:56:39.545Z,995.75
2018-04-12T12:57:39.582Z,995.67
2018-04-12T12:58:39.571Z,995.65
2018-04-12T12:59:39.555Z,995.62
2018-04-12T13:00:39.612Z,995.60
2018-04-12T13:01:39.601Z,995.62
2018-04-12T13:02:39.572Z,995.54
2018-04-12T13:03:39.596Z,995.52
2018-04-12T13:04:59.228Z,995.48
2018-04-12T13:05:40.188Z,995.50
2018-04-12T13:06:42.667Z,995.49
2018-04-12T13:07:40.169Z,995.46
2018-04-12T13:08:40.190Z,995.49
2018-04-12T13:09:40.176Z,995.48
2018-04-12T13:10:39.605Z,995.49
2018-04-12T13:11:39.609Z,995.50
2018-04-12T13:12:39.611Z,995.52
2018-04-12T13:13:39.621Z,995.47
2018-04-12T13:14:40.161Z,995.44
2018-04-12T13:15:39.617Z,995.48
2018-04-12T13:16:39.638Z,995.50
2018-04-12T13:17:39.638Z,995.45
2018-04-12T13:18:39.642Z,995.42
2018-04-12T13:19:39.633Z,995.47
2018-04-12T13:20:40.169Z,995.43
2018-04-12T13:21:39.979Z,995.44
2018-04-12T13:22:39.649Z,995.40
2018-04-12T13:23:39.653Z,995.43
2018-04-12T13:24:39.646Z,995.49
2018-04-12T13:25:39.656Z,995.51
2018-04-12T13:26:41.457Z,995.58
2018-04-12T13:27:39.696Z,995.58
2018-04-12T13:28:39.684Z,995.63
2018-04-12T13:29:39.678Z,995.66
2018-04-12T13:30:39.688Z,995.69
2018-04-12T13:31:39.699Z,995.70
2018-04-12T13:32:39.708Z,995.66
2018-04-12T13:33:39.712Z,995.70
2018-04-12T13:34:39.722Z,995.59
2018-04-12T13:35:44.207Z,995.58
2018-04-12T13:36:43.171Z,995.57
2018-04-12T13:37:41.178Z,995.64
2018-04-12T13:38:39.731Z,995.55
2018-04-12T13:39:39.712Z,995.57
2018-04-12T13:40:39.711Z,995.69
2018-04-12T13:41:39.775Z,995.52
2018-04-12T13:42:39.723Z,995.60
2018-04-12T13:43:39.728Z,995.63
2018-04-12T13:44:39.737Z,995.68
2018-04-12T13:45:39.746Z,995.65
2018-04-12T13:46:39.733Z,995.43
2018-04-12T13:47:39.745Z,995.37
2018-04-12T13:48:39.764Z,995.46
2018-04-12T13:49:39.772Z,995.42
2018-04-12T13:50:39.751Z,995.27
2018-04-12T13:51:39.754Z,995.27
2018-04-12T13:52:39.793Z,995.25
2018-04-12T13:53:39.764Z,995.20
2018-04-12T13:54:39.769Z,995.15
2018-04-12T13:55:39.784Z,995.07
2018-04-12T13:56:39.829Z,995.10
2018-04-12T13:57:39.786Z,995.12
2018-04-12T13:58:39.777Z,995.17
2018-04-12T13:59:39.785Z,995.22
2018-04-12T14:00:39.838Z,995.21
2018-04-12T14:01:39.800Z,995.28
2018-04-12T14:02:39.822Z,995.24
2018-04-12T14:03:39.793Z,995.22
2018-04-12T14:04:39.900Z,995.27
2018-04-12T14:05:39.800Z,995.29
2018-04-12T14:06:39.822Z,995.40
2018-04-12T14:07:39.812Z,995.34
2018-04-12T14:08:40.681Z,995.44
2018-04-12T14:09:39.839Z,995.40
2018-04-12T14:10:39.846Z,995.41
2018-04-12T14:11:40.682Z,995.45
2018-04-12T14:12:39.841Z,995.50
2018-04-12T14:13:39.836Z,995.51
2018-04-12T14:14:39.831Z,995.39
2018-04-12T14:15:39.852Z,995.45
2018-04-12T14:16:39.857Z,995.53
2018-04-12T14:17:39.851Z,995.57
2018-04-12T14:18:39.841Z,995.63
2018-04-12T14:19:39.850Z,995.71
2018-04-12T14:20:39.856Z,995.69
2018-04-12T14:21:39.862Z,995.66
2018-04-12T14:22:39.869Z,995.69
2018-04-12T14:23:39.871Z,995.66
2018-04-12T14:24:39.879Z,995.57
2018-04-12T14:25:39.910Z,995.60
2018-04-12T14:26:39.875Z,995.59
2018-04-12T14:27:39.874Z,995.56
2018-04-12T14:28:39.884Z,995.61
2018-04-12T14:29:39.958Z,995.58
2018-04-12T14:30:39.905Z,995.63
2018-04-12T14:31:40.014Z,995.59
2018-04-12T14:32:39.899Z,995.65
2018-04-12T14:33:39.936Z,995.59
2018-04-12T14:34:40.020Z,995.59
2018-04-12T14:35:39.964Z,995.54
2018-04-12T14:36:39.922Z,995.58
2018-04-12T14:37:39.925Z,995.55
2018-04-12T14:38:39.934Z,995.56
2018-04-12T14:39:39.946Z,995.49
2018-04-12T14:40:39.951Z,995.52
2018-04-12T14:41:40.696Z,995.48
2018-04-12T14:42:39.943Z,995.44
2018-04-12T14:43:39.945Z,995.41
2018-04-12T14:44:39.958Z,995.39
2018-04-12T14:45:39.954Z,995.42
2018-04-12T14:46:40.086Z,995.49
2018-04-12T14:47:40.010Z,995.45
2018-04-12T14:48:40.696Z,995.40
2018-04-12T14:49:39.963Z,995.41
2018-04-12T14:50:39.975Z,995.46
2018-04-12T14:51:39.979Z,995.42
2018-04-12T14:52:40.716Z,995.44
2018-04-12T14:53:39.988Z,995.44
2018-04-12T14:54:39.989Z,995.47
2018-04-12T14:55:39.992Z,995.40
2018-04-12T14:56:40.702Z,995.42
2018-04-12T14:57:40.029Z,995.43
2018-04-12T14:58:40.002Z,995.41
2018-04-12T14:59:40.025Z,995.43
2018-04-12T15:00:40.082Z,995.46
2018-04-12T15:01:40.019Z,995.52
2018-04-12T15:02:40.031Z,995.52
2018-04-12T15:03:40.024Z,995.60
2018-04-12T15:04:40.028Z,995.62
2018-04-12T15:05:40.025Z,995.69
2018-04-12T15:06:40.035Z,995.73
2018-04-12T15:07:40.057Z,995.75
2018-04-12T15:08:40.055Z,995.63
2018-04-12T15:09:40.718Z,995.70
2018-04-12T15:10:40.057Z,995.65
2018-04-12T15:11:40.042Z,995.66
2018-04-12T15:12:40.067Z,995.62
2018-04-12T15:13:40.077Z,995.60
2018-04-12T15:14:40.071Z,995.62
2018-04-12T15:15:40.118Z,995.61
2018-04-12T15:16:40.067Z,995.66
2018-04-12T15:17:40.077Z,995.63
2018-04-12T15:18:40.085Z,995.63
2018-04-12T15:19:40.078Z,995.66
2018-04-12T15:20:40.107Z,995.62
2018-04-12T15:21:40.091Z,995.66
2018-04-12T15:22:40.135Z,995.66
2018-04-12T15:23:40.101Z,995.68
2018-04-12T15:24:40.108Z,995.64
2018-04-12T15:25:40.154Z,995.63
2018-04-12T15:26:40.146Z,995.65
2018-04-12T15:27:40.128Z,995.58
2018-04-12T15:28:40.165Z,995.61
2018-04-12T15:29:40.123Z,995.60
2018-04-12T15:30:40.712Z,995.59
2018-04-12T15:31:40.126Z,995.55
2018-04-12T15:32:40.136Z,995.60
2018-04-12T15:33:40.139Z,995.49
2018-04-12T15:34:40.139Z,995.46
2018-04-12T15:35:40.153Z,995.45
2018-04-12T15:36:40.191Z,995.45
2018-04-12T15:37:40.176Z,995.42
2018-04-12T15:38:40.161Z,995.43
2018-04-12T15:39:40.166Z,995.50
2018-04-12T15:40:40.176Z,995.50
2018-04-12T15:41:40.174Z,995.45
2018-04-12T15:42:40.175Z,995.42
2018-04-12T15:43:40.174Z,995.41
2018-04-12T15:44:40.177Z,995.47
2018-04-12T15:45:40.243Z,995.39
2018-04-12T15:46:40.267Z,995.40
2018-04-12T15:47:40.201Z,995.39
2018-04-12T15:48:40.202Z,995.38
2018-04-12T15:49:40.227Z,995.40
2018-04-12T15:50:40.231Z,995.41
2018-04-12T15:51:40.209Z,995.39
2018-04-12T15:52:40.216Z,995.37
2018-04-12T15:53:40.223Z,995.38
2018-04-12T15:54:40.225Z,995.42
2018-04-12T15:55:40.222Z,995.43
2018-04-12T15:56:40.230Z,995.46
2018-04-12T15:57:40.296Z,995.43
2018-04-12T15:58:40.229Z,995.48
2018-04-12T15:59:40.236Z,995.42
2018-04-12T16:00:40.246Z,995.41
2018-04-12T16:01:40.244Z,995.38
2018-04-12T16:02:40.249Z,995.29
2018-04-12T16:03:40.322Z,995.24
2018-04-12T16:04:40.258Z,995.25
2018-04-12T16:05:40.268Z,995.22
2018-04-12T16:06:40.264Z,995.23
2018-04-12T16:07:41.684Z,995.29
2018-04-12T16:08:40.299Z,995.24
2018-04-12T16:09:40.280Z,995.24
2018-04-12T16:10:40.310Z,995.20
2018-04-12T16:11:40.304Z,995.17
2018-04-12T16:12:40.288Z,995.28
2018-04-12T16:13:40.297Z,995.30
2018-04-12T16:14:40.295Z,995.27
2018-04-12T16:15:40.306Z,995.32
2018-04-12T16:16:40.314Z,995.26
2018-04-12T16:17:40.302Z,995.27
2018-04-12T16:18:40.342Z,995.22
2018-04-12T16:19:40.317Z,995.20
2018-04-12T16:20:40.408Z,995.17
2018-04-12T16:21:40.328Z,995.21
2018-04-12T16:22:40.328Z,995.26
2018-04-12T16:23:40.333Z,995.29
2018-04-12T16:24:40.395Z,995.32
2018-04-12T16:25:40.371Z,995.32
2018-04-12T16:26:40.367Z,995.35
2018-04-12T16:29:00.508Z,995.37
2018-04-12T16:29:40.370Z,995.34
2018-04-12T16:30:40.355Z,995.34
2018-04-12T16:31:40.402Z,995.35
2018-04-12T16:32:40.361Z,995.32
2018-04-12T16:33:40.366Z,995.31
2018-04-12T16:34:40.371Z,995.34
2018-04-12T16:35:40.390Z,995.38
2018-04-12T16:36:40.377Z,995.40
2018-04-12T16:37:40.389Z,995.40
2018-04-12T16:38:40.402Z,995.39
2018-04-12T16:39:40.432Z,995.45
2018-04-12T16:40:40.396Z,995.45
2018-04-12T16:41:40.386Z,995.41
2018-04-12T16:42:40.392Z,995.37
2018-04-12T16:43:40.434Z,995.37
2018-04-12T16:44:40.420Z,995.40
2018-04-12T16:45:40.469Z,995.45
2018-04-12T16:46:40.459Z,995.52
2018-04-12T16:47:40.552Z,995.62
2018-04-12T16:48:40.488Z,995.72
2018-04-12T16:49:40.431Z,995.77
2018-04-12T16:50:40.420Z,995.85
2018-04-12T16:51:40.432Z,995.92
2018-04-12T16:52:40.432Z,996.06
2018-04-12T16:53:40.441Z,996.28
2018-04-12T16:54:40.440Z,996.60
2018-04-12T16:55:40.432Z,996.76
2018-04-12T16:56:40.445Z,996.81
2018-04-12T16:57:40.451Z,996.71
2018-04-12T16:58:40.452Z,996.76
2018-04-12T16:59:40.457Z,996.76
2018-04-12T17:00:40.538Z,996.66
2018-04-12T17:01:40.467Z,996.63
2018-04-12T17:02:40.464Z,996.68
2018-04-12T17:03:40.492Z,996.75
2018-04-12T17:04:40.463Z,996.57
2018-04-12T17:05:40.469Z,996.35
2018-04-12T17:06:40.474Z,996.05
2018-04-12T17:07:40.479Z,995.96
2018-04-12T17:08:40.596Z,996.00
2018-04-12T17:09:40.486Z,996.07
2018-04-12T17:10:40.496Z,996.07
2018-04-12T17:11:40.482Z,996.12
2018-04-12T17:12:40.501Z,996.22
2018-04-12T17:13:40.505Z,996.20
2018-04-12T17:14:40.509Z,996.18
2018-04-12T17:15:40.503Z,996.15
2018-04-12T17:16:40.511Z,996.17
2018-04-12T17:17:40.513Z,996.20
2018-04-12T17:18:40.548Z,996.22
2018-04-12T17:19:40.521Z,996.23
2018-04-12T17:20:40.529Z,996.30
2018-04-12T17:21:40.535Z,996.27
2018-04-12T17:22:40.534Z,996.25
2018-04-12T17:23:40.525Z,996.23
2018-04-12T17:24:40.631Z,996.19
2018-04-12T17:25:40.531Z,996.15
2018-04-12T17:26:40.554Z,996.08
2018-04-12T17:27:40.551Z,996.03
2018-04-12T17:28:40.573Z,995.98
2018-04-12T17:29:41.362Z,995.94
2018-04-12T17:30:40.554Z,995.85
2018-04-12T17:31:41.368Z,995.83
2018-04-12T17:32:40.621Z,995.75
2018-04-12T17:33:40.576Z,995.72
2018-04-12T17:34:40.577Z,995.70
2018-04-12T17:35:40.591Z,995.68
2018-04-12T17:36:40.574Z,995.64
2018-04-12T17:37:40.574Z,995.63
2018-04-12T17:38:40.577Z,995.66
2018-04-12T17:39:40.583Z,995.65
2018-04-12T17:40:40.579Z,995.61
2018-04-12T17:41:40.596Z,995.61
2018-04-12T17:42:40.598Z,995.60
2018-04-12T17:43:40.596Z,995.62
2018-04-12T17:44:40.593Z,995.58
2018-04-12T17:45:40.601Z,995.59
2018-04-12T17:46:40.608Z,995.60
2018-04-12T17:47:40.616Z,995.61
2018-04-12T17:48:40.613Z,995.63
2018-04-12T17:49:40.616Z,995.65
2018-04-12T17:50:40.642Z,995.64
2018-04-12T17:51:40.630Z,995.69
2018-04-12T17:52:40.616Z,995.70
2018-04-12T17:53:40.628Z,995.70
2018-04-12T17:54:40.649Z,995.71
2018-04-12T17:55:40.629Z,995.70
2018-04-12T17:56:40.635Z,995.72
2018-04-12T17:57:40.635Z,995.77
2018-04-12T17:58:40.642Z,995.77
2018-04-12T17:59:40.651Z,995.84
2018-04-12T18:00:40.673Z,995.88
2018-04-12T18:01:40.657Z,995.88
2018-04-12T18:02:40.670Z,995.86
2018-04-12T18:03:40.664Z,995.86
2018-04-12T18:04:40.662Z,995.84
2018-04-12T18:05:40.658Z,995.89
2018-04-12T18:06:40.666Z,995.85
2018-04-12T18:07:40.663Z,995.85
2018-04-12T18:08:40.733Z,995.85
2018-04-12T18:09:40.680Z,995.86
2018-04-12T18:10:40.675Z,995.84
2018-04-12T18:11:40.683Z,995.84
2018-04-12T18:12:40.683Z,995.82
2018-04-12T18:13:40.683Z,995.81
2018-04-12T18:14:40.691Z,995.83
2018-04-12T18:15:40.709Z,995.87
2018-04-12T18:16:40.697Z,995.83
2018-04-12T18:17:40.704Z,995.85
2018-04-12T18:18:40.715Z,995.85
2018-04-12T18:19:40.714Z,995.87
2018-04-12T18:20:40.721Z,995.86
2018-04-12T18:21:40.709Z,995.84
2018-04-12T18:22:40.728Z,995.85
2018-04-12T18:23:40.717Z,995.84
2018-04-12T18:24:40.713Z,995.83
2018-04-12T18:25:40.736Z,995.85
2018-04-12T18:26:40.720Z,995.85
2018-04-12T18:27:40.731Z,995.86
2018-04-12T18:28:40.743Z,995.90
2018-04-12T18:29:40.727Z,995.87
2018-04-12T18:30:40.735Z,995.91
2018-04-12T18:31:40.734Z,995.93
2018-04-12T18:32:40.754Z,995.91
2018-04-12T18:33:40.750Z,995.95
2018-04-12T18:34:40.741Z,995.97
2018-04-12T18:35:40.768Z,995.98
2018-04-12T18:36:40.778Z,996.01
2018-04-12T18:37:40.766Z,996.05
2018-04-12T18:38:40.760Z,996.10
2018-04-12T18:39:40.763Z,996.09
2018-04-12T18:40:40.762Z,996.14
2018-04-12T18:41:40.769Z,996.14
2018-04-12T18:42:40.838Z,996.20
2018-04-12T18:43:41.233Z,996.23
2018-04-12T18:44:40.783Z,996.26
2018-04-12T18:45:40.779Z,996.31
2018-04-12T18:46:40.801Z,996.33
2018-04-12T18:47:40.778Z,996.37
2018-04-12T18:48:40.798Z,996.36
2018-04-12T18:49:40.824Z,996.38
2018-04-12T18:50:40.798Z,996.38
2018-04-12T18:51:40.793Z,996.34
2018-04-12T18:52:40.817Z,996.41
2018-04-12T18:53:40.809Z,996.45
2018-04-12T18:54:40.874Z,996.45
2018-04-12T18:55:40.806Z,996.45
2018-04-12T18:56:40.808Z,996.47
2018-04-12T18:57:40.813Z,996.45
2018-04-12T18:58:40.815Z,996.48
2018-04-12T18:59:40.817Z,996.47
2018-04-12T19:00:40.846Z,996.48
2018-04-12T19:01:40.841Z,996.47
2018-04-12T19:02:40.829Z,996.51
2018-04-12T19:03:40.838Z,996.56
2018-04-12T19:04:40.834Z,996.56
2018-04-12T19:05:40.839Z,996.61
2018-04-12T19:06:40.858Z,996.67
2018-04-12T19:07:40.850Z,996.69
2018-04-12T19:08:40.863Z,996.68
2018-04-12T19:09:40.920Z,996.72
2018-04-12T19:10:40.854Z,996.73
2018-04-12T19:11:40.855Z,996.72
2018-04-12T19:12:40.855Z,996.68
2018-04-12T19:13:40.893Z,996.70
2018-04-12T19:14:40.864Z,996.69
2018-04-12T19:15:40.873Z,996.68
2018-04-12T19:16:40.909Z,996.65
2018-04-12T19:17:40.879Z,996.68
2018-04-12T19:18:40.876Z,996.66
2018-04-12T19:19:40.878Z,996.64
2018-04-12T19:20:40.883Z,996.64
2018-04-12T19:21:40.892Z,996.66
2018-04-12T19:22:40.895Z,996.67
2018-04-12T19:23:40.916Z,996.73
2018-04-12T19:24:40.884Z,996.74
2018-04-12T19:25:40.893Z,996.79
2018-04-12T19:26:40.900Z,996.78
2018-04-12T19:27:40.920Z,996.72
2018-04-12T19:28:40.899Z,996.70
2018-04-12T19:29:40.906Z,996.70
2018-04-12T19:30:41.404Z,996.69
2018-04-12T19:31:40.912Z,996.71
2018-04-12T19:32:40.925Z,996.67
2018-04-12T19:33:40.912Z,996.70
2018-04-12T19:34:41.409Z,996.69
2018-04-12T19:35:40.932Z,996.79
2018-04-12T19:36:40.995Z,996.77
2018-04-12T19:37:40.948Z,996.76
2018-04-12T19:38:40.942Z,996.77
2018-04-12T19:39:40.933Z,996.80
2018-04-12T19:40:40.958Z,996.77
2018-04-12T19:41:40.990Z,996.77
2018-04-12T19:42:40.945Z,996.75
2018-04-12T19:43:40.950Z,996.78
2018-04-12T19:44:40.951Z,996.78
2018-04-12T19:45:40.955Z,996.81
2018-04-12T19:46:40.959Z,996.85
2018-04-12T19:47:41.010Z,996.82
2018-04-12T19:48:40.953Z,996.77
2018-04-12T19:49:42.133Z,996.76
2018-04-12T19:50:41.014Z,996.79
2018-04-12T19:51:40.982Z,996.75
2018-04-12T19:52:40.982Z,996.72
2018-04-12T19:53:40.969Z,996.70
2018-04-12T19:54:40.972Z,996.72
2018-04-12T19:55:40.987Z,996.70
2018-04-12T19:56:40.987Z,996.62
2018-04-12T19:57:41.915Z,996.62
2018-04-12T19:58:40.990Z,996.56
2018-04-12T19:59:41.009Z,996.56
2018-04-12T20:00:41.034Z,996.58
2018-04-12T20:01:41.045Z,996.60
2018-04-12T20:02:41.000Z,996.58
2018-04-12T20:03:41.003Z,996.57
2018-04-12T20:04:41.011Z,996.60
2018-04-12T20:05:41.021Z,996.57
2018-04-12T20:06:41.022Z,996.56
2018-04-12T20:07:41.016Z,996.53
2018-04-12T20:08:41.026Z,996.55
2018-04-12T20:09:41.025Z,996.52
2018-04-12T20:10:41.027Z,996.52
2018-04-12T20:11:41.030Z,996.55
2018-04-12T20:12:41.038Z,996.54
2018-04-12T20:13:41.037Z,996.55
2018-04-12T20:14:41.034Z,996.52
2018-04-12T20:15:41.035Z,996.47
2018-04-12T20:16:41.044Z,996.49
2018-04-12T20:17:41.058Z,996.49
2018-04-12T20:18:41.927Z,996.48